This is the latest recevied weather packets stored in our database for station/object TAPIOLA. If no packets are shown the sender has not sent any weather packets the latest 10 day(s).
| Time | Temp. | Humidity | Pressure | Rain* | Wind** | Luminosity | Snow |
|---|---|---|---|---|---|---|---|
| 1777765625 | 7.22° C | 82% | 1006.5 hPa | 0 mm | - | - | - |
| 1777764425 | 7.78° C | 78% | 1006.6 hPa | 0 mm | - | - | - |
| 1777763224 | 7.78° C | 77% | 1006.8 hPa | 0 mm | - | - | - |
| 1777762025 | 8.33° C | 77% | 1006.9 hPa | 0 mm | - | - | - |
| 1777760825 | 7.78° C | 77% | 1007.1 hPa | 0 mm | - | - | - |
| 1777759625 | 7.78° C | 78% | 1007.4 hPa | 0 mm | - | - | - |
| 1777758424 | 7.78° C | 78% | 1007.5 hPa | 0 mm | - | - | - |
| 1777757224 | 7.78° C | 78% | 1007.8 hPa | 0 mm | - | - | - |
| 1777756024 | 8.33° C | 77% | 1008 hPa | 0 mm | - | - | - |
| 1777754825 | 7.78° C | 79% | 1008.1 hPa | 0 mm | - | - | - |
| 1777753624 | 7.78° C | 79% | 1008.3 hPa | 0 mm | - | - | - |
| 1777752424 | 8.33° C | 76% | 1008.5 hPa | 0 mm | - | - | - |
| 1777751224 | 8.89° C | 75% | 1008.6 hPa | 0 mm | - | - | - |
| 1777750024 | 10° C | 71% | 1008.6 hPa | 0 mm | - | - | - |
| 1777748824 | 11.11° C | 65% | 1008.7 hPa | 0 mm | - | - | - |
| 1777747623 | 11.67° C | 63% | 1008.7 hPa | 0 mm | - | - | - |
| 1777746424 | 12.22° C | 60% | 1008.8 hPa | 0 mm | - | - | - |
| 1777745223 | 12.78° C | 58% | 1008.7 hPa | 0 mm | - | - | - |
| 1777744023 | 13.33° C | 55% | 1008.8 hPa | 0 mm | - | - | - |
| 1777742824 | 13.89° C | 53% | 1008.7 hPa | 0 mm | - | - | - |
| 1777741623 | 14.44° C | 50% | 1008.7 hPa | 0 mm | - | - | - |
| 1777740423 | 15° C | 48% | 1008.7 hPa | 0 mm | - | - | - |
| 1777739223 | 15° C | 47% | 1008.7 hPa | 0 mm | - | - | - |
| 1777738023 | 15.56° C | 45% | 1008.8 hPa | 0 mm | - | - | - |
| 1777736823 | 16.67° C | 41% | 1008.9 hPa | 0 mm | - | - | - |
* Rain latest hour (hover to see other rain measurements)
** Current wind speed in m/s (hover to see current wind gust speed)